createdAt,value
2023-05-12T00:01:16.474Z,61.10
2023-05-12T00:03:43.255Z,61.10
2023-05-12T00:06:10.325Z,61.00
2023-05-12T00:08:37.010Z,61.00
2023-05-12T00:11:03.985Z,61.00
2023-05-12T00:13:30.725Z,61.10
2023-05-12T00:15:58.870Z,61.10
2023-05-12T00:18:26.321Z,61.10
2023-05-12T00:20:54.597Z,61.10
2023-05-12T00:23:22.440Z,61.10
2023-05-12T00:25:49.429Z,61.00
2023-05-12T00:28:36.041Z,61.00
2023-05-12T00:31:06.531Z,61.10
2023-05-12T00:33:33.298Z,61.00
2023-05-12T00:36:03.960Z,61.00
2023-05-12T00:38:34.780Z,61.00
2023-05-12T00:41:01.496Z,61.10
2023-05-12T00:43:28.118Z,61.00
2023-05-12T00:45:54.820Z,61.00
2023-05-12T00:48:21.618Z,61.00
2023-05-12T00:50:48.398Z,61.00
2023-05-12T00:53:15.152Z,61.00
2023-05-12T00:55:42.098Z,61.00
2023-05-12T00:58:08.794Z,61.00
2023-05-12T01:00:35.636Z,61.00
2023-05-12T01:03:02.542Z,61.00
2023-05-12T01:06:01.896Z,61.00
2023-05-12T01:08:29.393Z,61.00
2023-05-12T01:10:55.999Z,61.00
2023-05-12T01:13:22.638Z,61.00
2023-05-12T01:15:51.016Z,61.00
2023-05-12T01:18:19.898Z,61.00
2023-05-12T01:20:48.067Z,61.00
2023-05-12T01:23:18.929Z,61.00
2023-05-12T01:25:48.973Z,61.00
2023-05-12T01:28:16.625Z,61.00
2023-05-12T01:30:43.905Z,60.40
2023-05-12T01:33:10.737Z,61.00
2023-05-12T01:35:37.367Z,60.90
2023-05-12T01:38:04.295Z,60.90
2023-05-12T01:40:30.947Z,60.90
2023-05-12T01:42:57.713Z,60.90
2023-05-12T01:45:24.295Z,61.00
2023-05-12T01:47:50.973Z,60.90
2023-05-12T01:50:17.918Z,60.90
2023-05-12T01:52:46.104Z,61.00
2023-05-12T01:55:12.680Z,61.00
2023-05-12T01:57:42.042Z,61.00
2023-05-12T02:00:09.193Z,61.00
2023-05-12T02:02:35.852Z,60.80
2023-05-12T02:05:02.520Z,60.90
2023-05-12T02:07:29.092Z,60.90
2023-05-12T02:09:55.734Z,60.80
2023-05-12T02:12:22.736Z,60.80
2023-05-12T02:14:49.745Z,60.90
2023-05-12T02:17:17.156Z,60.80
2023-05-12T02:19:43.761Z,60.80
2023-05-12T02:22:10.467Z,60.80
2023-05-12T02:24:37.083Z,60.80
2023-05-12T02:27:03.877Z,60.80
2023-05-12T02:29:30.648Z,60.80
2023-05-12T02:31:57.285Z,61.50
2023-05-12T02:34:23.988Z,60.80
2023-05-12T02:36:50.717Z,60.80
2023-05-12T02:39:17.345Z,60.80
2023-05-12T02:41:43.965Z,60.80
2023-05-12T02:44:10.580Z,60.80
2023-05-12T02:46:37.274Z,60.80
2023-05-12T02:49:04.337Z,60.80
2023-05-12T02:51:31.891Z,60.80
2023-05-12T02:53:58.491Z,60.80
2023-05-12T02:56:25.851Z,60.70
2023-05-12T02:58:53.353Z,60.80
2023-05-12T03:01:20.040Z,60.70
2023-05-12T03:03:46.982Z,60.80
2023-05-12T03:06:13.758Z,60.70
2023-05-12T03:08:40.553Z,60.70
2023-05-12T03:11:07.210Z,60.70
2023-05-12T03:13:33.786Z,60.70
2023-05-12T03:16:01.580Z,60.80
2023-05-12T03:18:28.880Z,60.80
2023-05-12T03:20:55.621Z,60.70
2023-05-12T03:23:22.307Z,60.80
2023-05-12T03:25:48.932Z,60.80
2023-05-12T03:28:16.019Z,60.70
2023-05-12T03:30:42.627Z,60.70
2023-05-12T03:33:09.263Z,60.70
2023-05-12T03:35:35.924Z,60.70
2023-05-12T03:38:02.544Z,60.70
2023-05-12T03:40:29.160Z,60.70
2023-05-12T03:42:55.769Z,60.70
2023-05-12T03:45:22.450Z,60.70
2023-05-12T03:47:49.169Z,60.70
2023-05-12T03:50:15.958Z,60.70
2023-05-12T03:52:42.621Z,60.70
2023-05-12T03:55:10.259Z,60.70
2023-05-12T03:57:37.660Z,60.70
2023-05-12T04:00:05.357Z,60.70
2023-05-12T04:02:32.198Z,60.70
2023-05-12T04:04:58.948Z,60.70
2023-05-12T04:07:25.550Z,60.70
2023-05-12T04:09:52.161Z,60.70
2023-05-12T04:12:18.764Z,60.80
2023-05-12T04:14:45.442Z,60.80
2023-05-12T04:17:12.085Z,60.70
2023-05-12T04:19:38.901Z,60.60
2023-05-12T04:22:05.591Z,60.70
2023-05-12T04:24:32.295Z,60.70
2023-05-12T04:26:58.962Z,60.80
2023-05-12T04:29:25.604Z,61.50
2023-05-12T04:31:54.675Z,60.70
2023-05-12T04:34:21.410Z,60.70
2023-05-12T04:36:48.003Z,60.60
2023-05-12T04:39:14.687Z,60.70
2023-05-12T04:41:41.291Z,60.70
2023-05-12T04:44:07.913Z,60.70
2023-05-12T04:46:34.673Z,60.70
2023-05-12T04:49:01.769Z,60.70
2023-05-12T04:51:28.377Z,60.70
2023-05-12T04:53:55.018Z,60.70
2023-05-12T04:56:22.329Z,60.60
2023-05-12T04:58:49.194Z,60.50
2023-05-12T05:01:15.932Z,60.60
2023-05-12T05:03:42.775Z,60.70
2023-05-12T05:06:09.428Z,60.70
2023-05-12T05:08:36.524Z,60.70
2023-05-12T05:11:03.139Z,60.60
2023-05-12T05:13:29.777Z,60.60
2023-05-12T05:15:56.910Z,60.60
2023-05-12T05:18:24.428Z,60.60
2023-05-12T05:20:57.801Z,60.60
2023-05-12T05:23:25.783Z,60.60
2023-05-12T05:25:52.455Z,60.60
2023-05-12T05:28:21.119Z,60.60
2023-05-12T05:30:47.765Z,60.50
2023-05-12T05:33:14.367Z,60.50
2023-05-12T05:35:42.334Z,60.50
2023-05-12T05:38:09.023Z,60.60
2023-05-12T05:40:48.841Z,60.50
2023-05-12T05:43:18.611Z,60.60
2023-05-12T05:45:45.556Z,60.60
2023-05-12T05:48:12.340Z,60.70
2023-05-12T05:50:39.023Z,60.80
2023-05-12T05:53:06.594Z,61.00
2023-05-12T05:55:33.197Z,61.20
2023-05-12T05:57:59.864Z,61.10
2023-05-12T06:00:26.716Z,61.20
2023-05-12T06:02:53.474Z,61.10
2023-05-12T06:05:20.614Z,61.10
2023-05-12T06:07:47.582Z,61.10
2023-05-12T06:10:14.208Z,61.10
2023-05-12T06:12:41.355Z,61.20
2023-05-12T06:15:08.584Z,61.10
2023-05-12T06:17:35.736Z,61.20
2023-05-12T06:20:03.036Z,61.20
2023-05-12T06:22:29.650Z,61.20
2023-05-12T06:24:56.315Z,61.40
2023-05-12T06:27:23.253Z,61.40
2023-05-12T06:29:51.059Z,61.50
2023-05-12T06:32:18.101Z,61.40
2023-05-12T06:34:44.852Z,61.30
2023-05-12T06:37:11.564Z,61.30
2023-05-12T06:39:38.245Z,61.20
2023-05-12T06:42:05.276Z,61.20
2023-05-12T06:44:32.418Z,61.50
2023-05-12T06:46:59.129Z,61.30
2023-05-12T06:49:25.766Z,61.30
2023-05-12T06:51:52.399Z,61.20
2023-05-12T06:54:19.013Z,61.20
2023-05-12T06:56:45.937Z,61.50
2023-05-12T06:59:12.576Z,61.30
2023-05-12T07:01:39.364Z,61.30
2023-05-12T07:04:06.226Z,61.30
2023-05-12T07:06:34.386Z,61.30
2023-05-12T07:09:00.965Z,61.30
2023-05-12T07:11:27.569Z,61.30
2023-05-12T07:13:54.234Z,61.20
2023-05-12T07:16:20.965Z,61.50
2023-05-12T07:18:47.674Z,61.40
2023-05-12T07:21:14.801Z,62.70
2023-05-12T07:23:41.797Z,62.80
2023-05-12T07:26:08.814Z,62.50
2023-05-12T07:28:36.462Z,62.20
2023-05-12T07:31:03.978Z,61.70
2023-05-12T07:33:30.899Z,61.60
2023-05-12T07:35:57.659Z,61.40
2023-05-12T07:38:24.453Z,61.40
2023-05-12T07:40:51.287Z,61.30
2023-05-12T07:43:18.110Z,61.30
2023-05-12T07:45:45.599Z,61.30
2023-05-12T07:48:12.623Z,61.30
2023-05-12T07:50:39.552Z,61.30
2023-05-12T07:53:06.806Z,61.40
2023-05-12T07:55:33.582Z,61.40
2023-05-12T07:58:01.918Z,62.10
2023-05-12T08:00:28.906Z,61.40
2023-05-12T08:02:55.710Z,61.40
2023-05-12T08:05:22.599Z,61.30
2023-05-12T08:07:49.178Z,61.40
2023-05-12T08:10:16.345Z,61.30
2023-05-12T08:12:43.185Z,61.40
2023-05-12T08:15:10.209Z,61.30
2023-05-12T08:17:36.980Z,61.50
2023-05-12T08:20:06.801Z,61.50
2023-05-12T08:22:33.692Z,61.50
2023-05-12T08:25:00.352Z,61.40
2023-05-12T08:27:27.165Z,61.30
2023-05-12T08:29:53.804Z,61.30
2023-05-12T08:32:20.528Z,61.40
2023-05-12T08:34:47.268Z,61.30
2023-05-12T08:37:13.960Z,62.00
2023-05-12T08:39:40.793Z,61.40
2023-05-12T08:42:25.518Z,61.40
2023-05-12T08:44:53.523Z,61.30
2023-05-12T08:47:22.755Z,61.40
2023-05-12T08:50:00.857Z,61.40
2023-05-12T08:52:30.079Z,61.30
2023-05-12T08:54:57.062Z,61.30
2023-05-12T08:57:24.458Z,61.30
2023-05-12T08:59:54.647Z,61.20
2023-05-12T09:02:23.614Z,61.20
2023-05-12T09:04:52.078Z,61.30
2023-05-12T09:07:19.629Z,61.30
2023-05-12T09:09:49.063Z,61.20
2023-05-12T09:12:18.638Z,61.50
2023-05-12T09:14:47.724Z,61.90
2023-05-12T09:17:14.345Z,61.80
2023-05-12T09:19:41.153Z,61.90
2023-05-12T09:22:09.468Z,62.00
2023-05-12T09:24:40.816Z,62.00
2023-05-12T09:27:08.290Z,61.90
2023-05-12T09:29:42.447Z,61.80
2023-05-12T09:32:14.768Z,61.80
2023-05-12T09:34:43.417Z,61.60
2023-05-12T09:37:10.286Z,62.00
2023-05-12T09:39:37.034Z,61.50
2023-05-12T09:42:04.072Z,61.60
2023-05-12T09:44:32.264Z,61.50
2023-05-12T09:47:10.068Z,61.50
2023-05-12T09:49:37.100Z,61.50
2023-05-12T09:52:04.995Z,61.50
2023-05-12T09:54:32.414Z,61.60
2023-05-12T09:57:00.900Z,61.50
2023-05-12T09:59:32.463Z,61.50
2023-05-12T10:02:00.915Z,61.40
2023-05-12T10:04:29.974Z,61.20
2023-05-12T10:06:58.241Z,61.30
2023-05-12T10:09:36.024Z,61.40
2023-05-12T10:12:04.561Z,61.20
2023-05-12T10:14:31.809Z,61.10
2023-05-12T10:16:59.673Z,61.10
2023-05-12T10:19:28.413Z,61.10
2023-05-12T10:21:57.348Z,61.10
2023-05-12T10:24:27.516Z,61.10
2023-05-12T10:26:59.324Z,61.20
2023-05-12T10:29:30.428Z,61.20
2023-05-12T10:31:57.812Z,61.40
2023-05-12T10:34:30.755Z,61.30
2023-05-12T10:36:58.602Z,61.20
2023-05-12T10:39:29.884Z,61.00
2023-05-12T10:42:26.758Z,61.10
2023-05-12T10:44:54.540Z,61.00
2023-05-12T10:47:26.875Z,60.90
2023-05-12T10:49:58.608Z,60.90
2023-05-12T10:52:25.767Z,61.10
2023-05-12T10:55:03.837Z,61.20
2023-05-12T10:57:32.985Z,61.30
2023-05-12T11:00:01.701Z,61.00
2023-05-12T11:02:36.235Z,61.00
2023-05-12T11:05:05.693Z,61.10
2023-05-12T11:07:35.356Z,60.90
2023-05-12T11:10:05.554Z,61.10
2023-05-12T11:12:35.738Z,61.10
2023-05-12T11:15:04.476Z,61.00
2023-05-12T11:17:31.858Z,61.10
2023-05-12T11:19:59.506Z,61.20
2023-05-12T11:22:26.608Z,61.10
2023-05-12T11:24:53.463Z,61.20
2023-05-12T11:27:22.472Z,61.10
2023-05-12T11:30:00.202Z,61.20
2023-05-12T11:32:27.329Z,61.20
2023-05-12T11:34:53.983Z,61.20
2023-05-12T11:37:21.141Z,61.20
2023-05-12T11:39:48.296Z,61.20
2023-05-12T11:42:16.986Z,61.10
2023-05-12T11:44:50.184Z,61.30
2023-05-12T11:47:19.036Z,61.20
2023-05-12T11:49:51.470Z,61.30
2023-05-12T11:52:19.852Z,61.30
2023-05-12T11:54:57.326Z,61.30
2023-05-12T11:58:03.064Z,61.10
2023-05-12T12:00:34.820Z,60.90
2023-05-12T12:03:12.867Z,61.00
2023-05-12T12:05:45.241Z,61.00
2023-05-12T12:08:16.077Z,61.00
2023-05-12T12:10:46.508Z,60.70
2023-05-12T12:13:20.391Z,60.60
2023-05-12T12:15:47.441Z,60.70
2023-05-12T12:18:15.084Z,60.80
2023-05-12T12:20:42.191Z,60.80
2023-05-12T12:23:09.568Z,60.80
2023-05-12T12:25:37.252Z,60.90
2023-05-12T12:28:04.942Z,61.00
2023-05-12T12:30:31.902Z,61.00
2023-05-12T12:32:58.551Z,61.00
2023-05-12T12:35:25.207Z,61.10
2023-05-12T12:37:52.234Z,61.20
2023-05-12T12:40:20.500Z,61.30
2023-05-12T12:42:47.667Z,60.70
2023-05-12T12:45:14.351Z,61.40
2023-05-12T12:47:41.094Z,61.50
2023-05-12T12:50:10.429Z,61.40
2023-05-12T12:52:38.275Z,61.50
2023-05-12T12:55:07.924Z,61.40
2023-05-12T12:57:34.785Z,61.50
2023-05-12T13:00:01.697Z,61.60
2023-05-12T13:02:28.509Z,61.60
2023-05-12T13:04:55.159Z,61.70
2023-05-12T13:07:21.831Z,61.80
2023-05-12T13:09:48.438Z,61.80
2023-05-12T13:12:15.032Z,61.80
2023-05-12T13:14:41.634Z,61.80
2023-05-12T13:17:08.390Z,61.90
2023-05-12T13:19:37.814Z,61.80
2023-05-12T13:22:05.080Z,62.00
2023-05-12T13:24:31.703Z,62.00
2023-05-12T13:26:58.398Z,62.00
2023-05-12T13:29:25.040Z,62.10
2023-05-12T13:31:51.819Z,62.10
2023-05-12T13:34:18.421Z,61.50
2023-05-12T13:36:45.088Z,61.20
2023-05-12T13:39:12.541Z,61.40
2023-05-12T13:41:39.195Z,61.50
2023-05-12T13:44:06.149Z,61.80
2023-05-12T13:46:33.496Z,61.70
2023-05-12T13:49:00.769Z,61.80
2023-05-12T13:51:27.739Z,61.80
2023-05-12T13:53:54.520Z,61.80
2023-05-12T13:56:21.242Z,61.90
2023-05-12T13:58:47.869Z,61.90
2023-05-12T14:01:14.996Z,61.80
2023-05-12T14:03:42.477Z,61.70
2023-05-12T14:06:09.273Z,61.70
2023-05-12T14:08:36.281Z,61.60
2023-05-12T14:11:03.146Z,61.70
2023-05-12T14:13:30.172Z,61.60
2023-05-12T14:15:57.025Z,61.80
2023-05-12T14:18:24.611Z,61.70
2023-05-12T14:20:51.618Z,61.70
2023-05-12T14:23:18.722Z,61.80
2023-05-12T14:25:45.737Z,61.70
2023-05-12T14:28:12.486Z,61.70
2023-05-12T14:30:39.373Z,61.90
2023-05-12T14:33:06.374Z,61.80
2023-05-12T14:35:33.073Z,61.80
2023-05-12T14:37:59.689Z,61.80
2023-05-12T14:40:27.245Z,61.80
2023-05-12T14:42:55.144Z,61.80
2023-05-12T14:45:22.145Z,61.80
2023-05-12T14:47:49.118Z,61.70
2023-05-12T14:50:15.883Z,61.80
2023-05-12T14:52:42.655Z,61.80
2023-05-12T14:55:12.223Z,61.70
2023-05-12T14:57:40.132Z,61.80
2023-05-12T15:00:14.996Z,61.80
2023-05-12T15:02:43.856Z,61.80
2023-05-12T15:05:12.255Z,61.80
2023-05-12T15:07:39.235Z,61.70
2023-05-12T15:10:06.260Z,61.90
2023-05-12T15:12:33.405Z,61.90
2023-05-12T15:15:05.065Z,61.80
2023-05-12T15:17:32.002Z,61.70
2023-05-12T15:19:58.889Z,61.80
2023-05-12T15:22:25.623Z,61.80
2023-05-12T15:24:52.279Z,61.80
2023-05-12T15:27:18.976Z,61.80
2023-05-12T15:29:45.607Z,61.80
2023-05-12T15:32:12.254Z,61.80
2023-05-12T15:34:39.155Z,62.10
2023-05-12T15:37:06.476Z,61.90
2023-05-12T15:39:33.102Z,61.60
2023-05-12T15:42:00.036Z,61.50
2023-05-12T15:44:26.861Z,61.50
2023-05-12T15:46:53.676Z,61.60
2023-05-12T15:49:20.300Z,61.50
2023-05-12T15:51:46.902Z,61.20
2023-05-12T15:54:13.745Z,61.50
2023-05-12T15:56:40.382Z,61.70
2023-05-12T15:59:07.662Z,61.70
2023-05-12T16:01:37.716Z,61.80
2023-05-12T16:04:04.439Z,61.30
2023-05-12T16:06:31.252Z,62.10
2023-05-12T16:08:57.881Z,61.60
2023-05-12T16:11:24.515Z,61.50
2023-05-12T16:13:52.749Z,61.60
2023-05-12T16:16:19.855Z,61.90
2023-05-12T16:18:46.671Z,61.80
2023-05-12T16:21:14.225Z,61.80
2023-05-12T16:23:41.056Z,61.90
2023-05-12T16:26:07.792Z,61.80
2023-05-12T16:28:34.566Z,61.80
2023-05-12T16:31:02.134Z,61.70
2023-05-12T16:33:28.929Z,61.80
2023-05-12T16:35:55.791Z,61.90
2023-05-12T16:38:22.428Z,61.70
2023-05-12T16:40:49.306Z,62.40
2023-05-12T16:43:16.237Z,61.80
2023-05-12T16:45:43.508Z,61.80
2023-05-12T16:48:10.242Z,61.80
2023-05-12T16:50:36.887Z,61.80
2023-05-12T16:53:03.478Z,61.80
2023-05-12T16:55:30.698Z,61.80
2023-05-12T16:57:57.345Z,61.80
2023-05-12T17:00:23.977Z,61.80
2023-05-12T17:02:50.643Z,61.20
2023-05-12T17:05:17.303Z,61.80
2023-05-12T17:07:43.930Z,61.70
2023-05-12T17:10:10.749Z,61.70
2023-05-12T17:12:37.617Z,61.70
2023-05-12T17:15:08.181Z,61.70
2023-05-12T17:17:35.539Z,61.70
2023-05-12T17:20:02.734Z,61.70
2023-05-12T17:22:34.366Z,61.70
2023-05-12T17:25:01.055Z,61.70
2023-05-12T17:27:27.737Z,61.70
2023-05-12T17:29:54.423Z,61.70
2023-05-12T17:32:21.385Z,61.60
2023-05-12T17:34:50.438Z,61.60
2023-05-12T17:37:17.547Z,61.80
2023-05-12T17:39:44.429Z,61.60
2023-05-12T17:42:11.071Z,61.70
2023-05-12T17:44:37.678Z,61.60
2023-05-12T17:47:04.812Z,61.60
2023-05-12T17:49:31.988Z,61.60
2023-05-12T17:51:58.678Z,61.60
2023-05-12T17:54:25.305Z,61.50
2023-05-12T17:56:51.891Z,61.40
2023-05-12T17:59:18.480Z,61.50
2023-05-12T18:01:45.105Z,61.40
2023-05-12T18:04:11.727Z,61.40
2023-05-12T18:06:38.558Z,61.40
2023-05-12T18:09:05.996Z,61.40
2023-05-12T18:11:34.187Z,61.50
2023-05-12T18:14:02.411Z,61.50
2023-05-12T18:16:29.790Z,61.30
2023-05-12T18:18:56.931Z,61.20
2023-05-12T18:21:23.774Z,61.00
2023-05-12T18:23:50.458Z,61.10
2023-05-12T18:26:17.192Z,61.10
2023-05-12T18:28:43.816Z,61.90
2023-05-12T18:31:15.509Z,61.10
2023-05-12T18:33:45.894Z,61.10
2023-05-12T18:36:12.810Z,61.10
2023-05-12T18:38:39.458Z,61.10
2023-05-12T18:41:06.055Z,61.20
2023-05-12T18:43:33.002Z,61.70
2023-05-12T18:45:59.728Z,61.30
2023-05-12T18:48:26.496Z,61.50
2023-05-12T18:50:53.292Z,61.50
2023-05-12T18:53:19.875Z,61.50
2023-05-12T18:55:46.559Z,61.50
2023-05-12T18:58:13.458Z,61.50
2023-05-12T19:00:40.346Z,61.60
2023-05-12T19:03:07.031Z,61.70
2023-05-12T19:05:33.802Z,62.10
2023-05-12T19:08:00.600Z,61.90
2023-05-12T19:10:27.921Z,61.90
2023-05-12T19:12:54.723Z,61.90
2023-05-12T19:15:21.858Z,62.20
2023-05-12T19:17:49.387Z,62.10
2023-05-12T19:20:16.189Z,62.90
2023-05-12T19:22:43.914Z,62.20
2023-05-12T19:25:10.815Z,62.00
2023-05-12T19:27:37.765Z,62.30
2023-05-12T19:30:05.377Z,62.20
2023-05-12T19:32:32.821Z,62.40
2023-05-12T19:35:00.802Z,62.40
2023-05-12T19:37:27.748Z,61.00
2023-05-12T19:39:54.364Z,60.70
2023-05-12T19:42:21.355Z,60.70
2023-05-12T19:44:48.084Z,60.80
2023-05-12T19:47:14.934Z,61.00
2023-05-12T19:49:41.643Z,61.10
2023-05-12T19:52:08.496Z,61.20
2023-05-12T19:54:35.708Z,61.40
2023-05-12T19:57:02.334Z,61.40
2023-05-12T19:59:28.955Z,61.40
2023-05-12T20:01:55.689Z,61.50
2023-05-12T20:04:23.335Z,61.50
2023-05-12T20:06:50.854Z,60.30
2023-05-12T20:09:20.388Z,61.40
2023-05-12T20:11:46.965Z,61.50
2023-05-12T20:14:13.688Z,61.40
2023-05-12T20:16:40.455Z,61.50
2023-05-12T20:19:07.103Z,61.30
2023-05-12T20:21:33.849Z,60.30
2023-05-12T20:24:00.704Z,60.90
2023-05-12T20:26:28.270Z,60.90
2023-05-12T20:28:55.114Z,60.70
2023-05-12T20:31:22.246Z,60.90
2023-05-12T20:33:48.906Z,60.90
2023-05-12T20:36:15.579Z,60.90
2023-05-12T20:38:42.390Z,60.90
2023-05-12T20:41:09.217Z,60.90
2023-05-12T20:43:35.848Z,60.90
2023-05-12T20:46:05.874Z,60.90
2023-05-12T20:48:32.887Z,60.90
2023-05-12T20:50:59.608Z,61.00
2023-05-12T20:53:26.288Z,61.00
2023-05-12T20:55:52.942Z,61.00
2023-05-12T20:58:19.536Z,60.90
2023-05-12T21:00:46.206Z,61.00
2023-05-12T21:03:16.929Z,60.90
2023-05-12T21:05:47.600Z,60.90
2023-05-12T21:08:14.523Z,60.80
2023-05-12T21:10:41.271Z,60.60
2023-05-12T21:13:07.924Z,60.50
2023-05-12T21:15:34.719Z,60.50
2023-05-12T21:18:01.474Z,60.50
2023-05-12T21:20:28.150Z,60.40
2023-05-12T21:22:56.724Z,60.50
2023-05-12T21:25:23.866Z,60.50
2023-05-12T21:27:50.545Z,60.60
2023-05-12T21:30:17.215Z,60.60
2023-05-12T21:32:44.138Z,60.60
2023-05-12T21:35:11.158Z,60.50
2023-05-12T21:37:38.316Z,60.60
2023-05-12T21:40:05.910Z,60.50
2023-05-12T21:42:32.616Z,61.30
2023-05-12T21:44:59.235Z,60.60
2023-05-12T21:47:25.952Z,60.60
2023-05-12T21:49:56.479Z,60.50
2023-05-12T21:52:23.350Z,60.50
2023-05-12T21:54:50.017Z,60.30
2023-05-12T21:57:16.803Z,60.30
2023-05-12T21:59:43.465Z,60.20
2023-05-12T22:02:10.175Z,60.10
2023-05-12T22:04:36.778Z,60.20
2023-05-12T22:07:03.413Z,60.10
2023-05-12T22:09:31.278Z,60.00
2023-05-12T22:11:57.986Z,60.00
2023-05-12T22:14:24.742Z,60.10
2023-05-12T22:16:51.482Z,60.00
2023-05-12T22:19:18.207Z,60.00
2023-05-12T22:21:44.966Z,60.10
2023-05-12T22:24:11.569Z,60.10
2023-05-12T22:26:38.344Z,60.00
2023-05-12T22:29:04.979Z,60.00
2023-05-12T22:31:31.632Z,60.00
2023-05-12T22:33:58.284Z,60.00
2023-05-12T22:36:24.940Z,60.00
2023-05-12T22:38:51.563Z,60.70
2023-05-12T22:41:18.162Z,59.90
2023-05-12T22:43:44.934Z,59.90
2023-05-12T22:46:11.889Z,60.00
2023-05-12T22:48:39.348Z,59.80
2023-05-12T22:51:06.761Z,59.80
2023-05-12T22:53:37.242Z,59.80
2023-05-12T22:56:03.933Z,59.70
2023-05-12T22:58:30.664Z,59.70
2023-05-12T23:00:57.348Z,59.80
2023-05-12T23:03:24.235Z,59.80
2023-05-12T23:05:50.901Z,59.80
2023-05-12T23:08:17.613Z,59.80
2023-05-12T23:10:44.324Z,59.70
2023-05-12T23:13:10.917Z,59.70
2023-05-12T23:15:37.616Z,59.70
2023-05-12T23:18:04.305Z,59.70
2023-05-12T23:20:31.735Z,59.70
2023-05-12T23:22:58.357Z,59.80
2023-05-12T23:25:25.024Z,59.80
2023-05-12T23:27:51.633Z,59.60
2023-05-12T23:30:18.325Z,59.60
2023-05-12T23:32:45.152Z,59.60
2023-05-12T23:35:11.902Z,59.70
2023-05-12T23:37:38.516Z,59.70
2023-05-12T23:40:05.945Z,59.50
2023-05-12T23:42:32.555Z,59.70
2023-05-12T23:44:59.228Z,59.60
2023-05-12T23:47:25.927Z,59.60
2023-05-12T23:49:52.564Z,59.50
2023-05-12T23:52:19.241Z,59.60
2023-05-12T23:54:45.913Z,59.50
2023-05-12T23:57:12.573Z,59.50
2023-05-12T23:59:39.180Z,60.20
